createdAt,value
2019-03-05T00:02:03.245Z,0.63
2019-03-05T00:04:34.273Z,0.80
2019-03-05T00:07:04.440Z,2.23
2019-03-05T00:09:34.595Z,0.93
2019-03-05T00:12:07.461Z,1.57
2019-03-05T00:14:37.959Z,1.60
2019-03-05T00:17:08.487Z,1.60
2019-03-05T00:19:40.383Z,1.00
2019-03-05T00:22:10.511Z,0.90
2019-03-05T00:25:01.553Z,1.93
2019-03-05T00:27:33.991Z,0.83
2019-03-05T00:30:21.002Z,0.50
2019-03-05T00:32:58.721Z,0.50
2019-03-05T00:35:36.784Z,1.03
2019-03-05T00:38:17.341Z,0.97
2019-03-05T00:41:09.976Z,1.17
2019-03-05T00:43:53.617Z,0.73
2019-03-05T00:46:36.566Z,1.70
2019-03-05T00:49:17.146Z,1.87
2019-03-05T00:52:11.185Z,0.33
2019-03-05T00:55:06.704Z,1.13
2019-03-05T00:57:59.638Z,1.20
2019-03-05T01:00:52.270Z,1.03
2019-03-05T01:03:42.154Z,1.47
2019-03-05T01:06:24.172Z,0.50
2019-03-05T01:08:59.871Z,1.67
2019-03-05T01:11:30.016Z,1.13
2019-03-05T01:14:00.149Z,1.00
2019-03-05T01:16:32.069Z,2.17
2019-03-05T01:19:06.346Z,1.80
2019-03-05T01:21:36.452Z,0.73
2019-03-05T01:24:08.534Z,2.70
2019-03-05T01:26:39.343Z,1.67
2019-03-05T01:29:10.015Z,1.07
2019-03-05T01:31:41.883Z,0.70
2019-03-05T01:34:19.297Z,1.27
2019-03-05T01:36:56.851Z,1.43
2019-03-05T01:39:37.543Z,0.80
2019-03-05T01:42:07.926Z,1.13
2019-03-05T01:44:42.987Z,2.10
2019-03-05T01:47:13.180Z,0.60
2019-03-05T01:49:44.939Z,1.87
2019-03-05T01:52:16.734Z,0.93
2019-03-05T01:54:46.866Z,1.47
2019-03-05T01:57:18.298Z,1.40
2019-03-05T01:59:50.318Z,0.53
2019-03-05T02:02:20.451Z,1.10
2019-03-05T02:04:50.752Z,0.70
2019-03-05T02:07:20.900Z,1.73
2019-03-05T02:09:51.020Z,0.63
2019-03-05T02:12:21.172Z,0.97
2019-03-05T02:14:51.380Z,0.63
2019-03-05T02:17:21.850Z,0.80
2019-03-05T02:19:51.977Z,0.67
2019-03-05T02:22:32.319Z,2.10
2019-03-05T02:25:13.045Z,1.27
2019-03-05T02:27:53.725Z,0.73
2019-03-05T02:31:09.452Z,1.13
2019-03-05T02:34:19.244Z,1.40
2019-03-05T02:37:22.535Z,1.17
2019-03-05T02:40:03.317Z,0.93
2019-03-05T02:42:41.274Z,0.87
2019-03-05T02:45:37.221Z,1.43
2019-03-05T02:48:45.904Z,0.77
2019-03-05T02:51:29.933Z,1.07
2019-03-05T02:54:37.952Z,0.90
2019-03-05T02:57:09.988Z,3.23
2019-03-05T02:59:42.667Z,1.30
2019-03-05T03:02:32.342Z,1.53
2019-03-05T03:05:15.977Z,1.50
2019-03-05T03:07:46.112Z,1.03
2019-03-05T03:10:21.558Z,1.00
2019-03-05T03:12:51.936Z,1.23
2019-03-05T03:15:22.079Z,0.90
2019-03-05T03:17:53.450Z,1.77
2019-03-05T03:20:23.595Z,1.33
2019-03-05T03:22:55.703Z,0.70
2019-03-05T03:25:25.968Z,0.93
2019-03-05T03:28:00.270Z,1.10
2019-03-05T03:30:30.408Z,1.13
2019-03-05T03:33:01.606Z,1.83
2019-03-05T03:35:31.721Z,1.00
2019-03-05T03:38:01.861Z,0.73
2019-03-05T03:40:36.434Z,1.43
2019-03-05T03:43:07.737Z,1.10
2019-03-05T03:45:37.840Z,1.07
2019-03-05T03:48:11.470Z,0.50
2019-03-05T03:50:41.641Z,1.13
2019-03-05T03:53:12.152Z,2.37
2019-03-05T03:55:42.275Z,1.23
2019-03-05T03:58:12.407Z,0.67
2019-03-05T04:00:42.564Z,1.10
2019-03-05T04:03:13.862Z,0.73
2019-03-05T04:05:44.334Z,1.27
2019-03-05T04:08:15.340Z,0.70
2019-03-05T04:10:45.885Z,0.43
2019-03-05T04:13:16.084Z,3.43
2019-03-05T04:15:46.223Z,1.77
2019-03-05T04:18:16.351Z,0.80
2019-03-05T04:20:48.246Z,0.63
2019-03-05T04:23:18.676Z,0.77
2019-03-05T04:25:50.350Z,0.83
2019-03-05T04:28:21.596Z,1.03
2019-03-05T04:30:53.476Z,0.60
2019-03-05T04:33:23.715Z,1.20
2019-03-05T04:35:54.010Z,0.70
2019-03-05T04:38:25.468Z,1.20
2019-03-05T04:40:55.606Z,0.97
2019-03-05T04:43:26.653Z,0.83
2019-03-05T04:46:05.414Z,2.23
2019-03-05T04:48:35.574Z,1.23
2019-03-05T04:51:13.305Z,3.03
2019-03-05T04:53:43.442Z,0.83
2019-03-05T04:56:13.576Z,0.90
2019-03-05T04:58:43.758Z,0.80
2019-03-05T05:01:14.897Z,0.90
2019-03-05T05:03:45.292Z,1.03
2019-03-05T05:06:15.411Z,2.10
2019-03-05T05:08:45.604Z,1.20
2019-03-05T05:11:18.303Z,1.03
2019-03-05T05:13:48.444Z,0.93
2019-03-05T05:16:18.570Z,0.50
2019-03-05T05:18:48.749Z,0.80
2019-03-05T05:21:18.881Z,1.47
2019-03-05T05:23:50.817Z,0.87
2019-03-05T05:26:21.452Z,1.47
2019-03-05T05:28:51.593Z,1.33
2019-03-05T05:31:23.801Z,1.30
2019-03-05T05:33:53.944Z,0.60
2019-03-05T05:36:24.069Z,0.40
2019-03-05T05:38:54.205Z,0.37
2019-03-05T05:41:24.422Z,0.90
2019-03-05T05:43:54.523Z,0.83
2019-03-05T05:46:24.649Z,1.70
2019-03-05T05:48:55.721Z,1.10
2019-03-05T05:51:26.929Z,0.40
2019-03-05T05:53:57.049Z,0.73
2019-03-05T05:56:28.889Z,0.80
2019-03-05T05:58:59.135Z,2.10
2019-03-05T06:01:29.275Z,0.47
2019-03-05T06:03:59.681Z,0.77
2019-03-05T06:06:30.375Z,1.10
2019-03-05T06:09:01.388Z,0.40
2019-03-05T06:11:33.486Z,0.73
2019-03-05T06:14:03.828Z,0.40
2019-03-05T06:16:34.746Z,1.13
2019-03-05T06:19:04.878Z,0.50
2019-03-05T06:21:35.009Z,0.40
2019-03-05T06:24:09.849Z,0.30
2019-03-05T06:26:39.989Z,1.57
2019-03-05T06:29:10.125Z,0.33
2019-03-05T06:31:40.265Z,1.13
2019-03-05T06:34:10.458Z,1.17
2019-03-05T06:36:52.863Z,0.77
2019-03-05T06:39:22.983Z,1.13
2019-03-05T06:41:53.196Z,0.53
2019-03-05T06:44:23.317Z,1.17
2019-03-05T06:46:53.420Z,0.77
2019-03-05T06:49:23.557Z,0.80
2019-03-05T06:51:53.691Z,1.33
2019-03-05T06:54:23.813Z,1.20
2019-03-05T06:56:53.948Z,1.53
2019-03-05T06:59:24.097Z,0.97
2019-03-05T07:01:54.230Z,0.20
2019-03-05T07:04:24.373Z,0.93
2019-03-05T07:06:55.052Z,0.90
2019-03-05T07:09:56.767Z,0.93
2019-03-05T07:12:37.530Z,0.10
2019-03-05T07:15:15.769Z,1.23
2019-03-05T07:18:12.063Z,0.70
2019-03-05T07:21:05.842Z,0.40
2019-03-05T07:23:57.088Z,0.50
2019-03-05T07:26:27.217Z,0.50
2019-03-05T07:28:59.392Z,0.43
2019-03-05T07:31:29.524Z,2.60
2019-03-05T07:33:59.690Z,0.50
2019-03-05T07:36:33.018Z,0.40
2019-03-05T07:39:04.545Z,0.63
2019-03-05T07:41:34.856Z,2.90
2019-03-05T07:44:06.347Z,0.83
2019-03-05T07:46:37.037Z,0.97
2019-03-05T07:49:07.163Z,1.60
2019-03-05T07:51:38.059Z,0.50
2019-03-05T07:54:08.250Z,0.47
2019-03-05T07:56:38.317Z,1.50
2019-03-05T07:59:08.439Z,1.03
2019-03-05T08:01:40.243Z,4.10
2019-03-05T08:04:11.013Z,1.67
2019-03-05T08:06:42.018Z,0.93
2019-03-05T08:09:34.793Z,1.13
2019-03-05T08:12:31.975Z,0.93
2019-03-05T08:15:21.392Z,1.87
2019-03-05T08:17:51.546Z,3.10
2019-03-05T08:20:24.049Z,4.60
2019-03-05T08:22:54.222Z,4.53
2019-03-05T08:25:24.437Z,4.00
2019-03-05T08:27:54.569Z,4.97
2019-03-05T08:30:24.702Z,4.30
2019-03-05T08:32:55.409Z,6.10
2019-03-05T08:35:25.836Z,3.57
2019-03-05T08:37:57.115Z,6.17
2019-03-05T08:40:28.167Z,5.47
2019-03-05T08:43:24.121Z,5.07
2019-03-05T08:46:02.001Z,4.83
2019-03-05T08:48:32.309Z,4.50
2019-03-05T08:51:02.461Z,5.83
2019-03-05T08:53:32.670Z,5.00
2019-03-05T08:56:02.723Z,5.53
2019-03-05T08:58:35.432Z,3.53
2019-03-05T09:01:05.717Z,4.70
2019-03-05T09:03:37.372Z,4.93
2019-03-05T09:06:07.473Z,6.07
2019-03-05T09:08:38.558Z,5.00
2019-03-05T09:11:08.767Z,6.10
2019-03-05T09:13:38.901Z,3.73
2019-03-05T09:16:09.103Z,4.10
2019-03-05T09:18:40.373Z,4.90
2019-03-05T09:21:12.267Z,3.50
2019-03-05T09:23:42.404Z,3.87
2019-03-05T09:26:12.538Z,3.40
2019-03-05T09:28:42.681Z,3.53
2019-03-05T09:31:12.972Z,7.07
2019-03-05T09:33:43.117Z,3.47
2019-03-05T09:36:13.244Z,4.37
2019-03-05T09:38:44.481Z,5.33
2019-03-05T09:41:14.721Z,3.67
2019-03-05T09:43:44.870Z,4.50
2019-03-05T09:46:15.024Z,3.83
2019-03-05T09:48:47.414Z,3.77
2019-03-05T09:51:17.546Z,3.27
2019-03-05T09:53:47.685Z,3.17
2019-03-05T09:56:17.847Z,2.50
2019-03-05T09:58:47.988Z,3.63
2019-03-05T10:01:18.392Z,2.80
2019-03-05T10:03:48.554Z,2.80
2019-03-05T10:06:18.695Z,2.17
2019-03-05T10:08:48.851Z,3.70
2019-03-05T10:11:19.049Z,3.23
2019-03-05T10:13:49.183Z,4.43
2019-03-05T10:16:19.319Z,4.50
2019-03-05T10:18:49.476Z,2.90
2019-03-05T10:21:19.604Z,4.27
2019-03-05T10:23:51.415Z,4.07
2019-03-05T10:26:21.543Z,3.00
2019-03-05T10:28:51.704Z,3.03
2019-03-05T10:31:21.847Z,3.93
2019-03-05T10:33:54.285Z,3.03
2019-03-05T10:36:25.073Z,3.97
2019-03-05T10:38:57.553Z,4.23
2019-03-05T10:41:28.729Z,2.83
2019-03-05T10:43:59.344Z,3.30
2019-03-05T10:46:29.498Z,3.60
2019-03-05T10:49:03.328Z,3.23
2019-03-05T10:51:33.546Z,2.30
2019-03-05T10:54:06.187Z,3.10
2019-03-05T10:56:36.341Z,2.33
2019-03-05T10:59:06.468Z,3.40
2019-03-05T11:01:36.666Z,4.13
2019-03-05T11:04:06.860Z,3.00
2019-03-05T11:06:37.022Z,1.40
2019-03-05T11:09:08.238Z,2.50
2019-03-05T11:11:41.805Z,3.57
2019-03-05T11:14:11.936Z,4.87
2019-03-05T11:16:42.067Z,3.40
2019-03-05T11:19:12.852Z,5.17
2019-03-05T11:21:43.324Z,2.70
2019-03-05T11:24:13.526Z,3.83
2019-03-05T11:26:43.680Z,1.90
2019-03-05T11:29:13.855Z,3.17
2019-03-05T11:31:47.108Z,2.53
2019-03-05T11:34:18.272Z,3.80
2019-03-05T11:36:48.408Z,2.03
2019-03-05T11:39:20.074Z,2.53
2019-03-05T11:41:50.433Z,1.80
2019-03-05T11:44:20.566Z,4.40
2019-03-05T11:46:50.734Z,2.53
2019-03-05T11:49:20.869Z,2.90
2019-03-05T11:51:51.034Z,1.70
2019-03-05T11:54:21.165Z,2.30
2019-03-05T11:56:51.327Z,2.20
2019-03-05T11:59:21.472Z,1.80
2019-03-05T12:01:51.717Z,2.23
2019-03-05T12:04:21.838Z,2.63
2019-03-05T12:06:53.428Z,1.93
2019-03-05T12:09:25.426Z,2.40
2019-03-05T12:11:55.557Z,2.37
2019-03-05T12:14:25.699Z,2.20
2019-03-05T12:16:55.860Z,2.77
2019-03-05T12:19:25.992Z,2.23
2019-03-05T12:21:56.151Z,1.60
2019-03-05T12:24:26.261Z,1.47
2019-03-05T12:26:56.932Z,1.80
2019-03-05T12:29:27.113Z,3.57
2019-03-05T12:31:59.823Z,2.07
2019-03-05T12:34:30.209Z,2.73
2019-03-05T12:37:02.958Z,2.80
2019-03-05T12:39:33.038Z,1.87
2019-03-05T12:42:04.357Z,1.70
2019-03-05T12:44:34.478Z,2.63
2019-03-05T12:47:04.700Z,2.13
2019-03-05T12:49:35.643Z,1.63
2019-03-05T12:52:05.792Z,2.57
2019-03-05T12:54:35.930Z,1.93
2019-03-05T12:57:06.059Z,2.77
2019-03-05T12:59:36.530Z,2.53
2019-03-05T13:02:07.031Z,2.87
2019-03-05T13:04:37.746Z,1.57
2019-03-05T13:07:08.017Z,1.57
2019-03-05T13:09:38.523Z,0.90
2019-03-05T13:12:08.661Z,2.60
2019-03-05T13:14:42.652Z,1.80
2019-03-05T13:17:10.648Z,2.47
2019-03-05T13:19:44.379Z,2.17
2019-03-05T13:22:12.837Z,1.60
2019-03-05T13:24:46.808Z,1.93
2019-03-05T13:27:18.831Z,3.63
2019-03-05T13:29:47.986Z,2.00
2019-03-05T13:32:20.696Z,1.83
2019-03-05T13:34:50.193Z,3.93
2019-03-05T13:37:20.336Z,1.00
2019-03-05T13:39:50.541Z,2.27
2019-03-05T13:42:21.896Z,1.47
2019-03-05T13:44:52.113Z,3.67
2019-03-05T13:47:22.305Z,1.77
2019-03-05T13:50:04.550Z,2.90
2019-03-05T13:53:19.220Z,1.53
2019-03-05T13:56:25.413Z,2.03
2019-03-05T13:59:19.075Z,2.07
2019-03-05T14:01:49.216Z,3.10
2019-03-05T14:04:41.853Z,1.90
2019-03-05T14:07:54.077Z,1.47
2019-03-05T14:10:26.107Z,2.43
2019-03-05T14:12:56.051Z,1.30
2019-03-05T14:15:26.906Z,2.17
2019-03-05T14:17:59.289Z,1.97
2019-03-05T14:20:31.886Z,1.13
2019-03-05T14:23:02.295Z,2.50
2019-03-05T14:25:32.460Z,1.33
2019-03-05T14:28:06.455Z,1.47
2019-03-05T14:30:37.956Z,1.83
2019-03-05T14:33:10.108Z,1.90
2019-03-05T14:35:40.467Z,1.87
2019-03-05T14:38:16.799Z,3.67
2019-03-05T14:40:53.740Z,1.00
2019-03-05T14:43:23.877Z,2.00
2019-03-05T14:45:54.079Z,2.33
2019-03-05T14:48:24.211Z,1.20
2019-03-05T14:50:54.420Z,2.97
2019-03-05T14:53:24.557Z,3.50
2019-03-05T14:55:54.725Z,2.20
2019-03-05T14:58:24.986Z,2.60
2019-03-05T15:00:55.443Z,2.33
2019-03-05T15:03:25.565Z,1.43
2019-03-05T15:05:55.738Z,2.13
2019-03-05T15:08:27.221Z,3.23
2019-03-05T15:10:57.495Z,1.47
2019-03-05T15:13:28.025Z,3.33
2019-03-05T15:15:58.244Z,2.00
2019-03-05T15:18:28.490Z,4.23
2019-03-05T15:20:58.641Z,2.63
2019-03-05T15:23:30.904Z,1.83
2019-03-05T15:26:01.121Z,2.20
2019-03-05T15:28:32.431Z,3.83
2019-03-05T15:31:04.745Z,2.13
2019-03-05T15:33:34.931Z,2.83
2019-03-05T15:36:05.112Z,1.43
2019-03-05T15:38:35.246Z,2.17
2019-03-05T15:41:05.482Z,1.00
2019-03-05T15:43:35.627Z,1.23
2019-03-05T15:46:06.030Z,1.57
2019-03-05T15:48:36.177Z,1.67
2019-03-05T15:51:06.263Z,3.07
2019-03-05T15:53:36.411Z,0.80
2019-03-05T15:56:06.653Z,2.83
2019-03-05T15:58:36.812Z,0.50
2019-03-05T16:01:06.983Z,1.63
2019-03-05T16:03:37.113Z,3.50
2019-03-05T16:06:07.485Z,0.73
2019-03-05T16:08:37.790Z,1.93
2019-03-05T16:11:08.043Z,1.67
2019-03-05T16:13:38.933Z,1.00
2019-03-05T16:16:09.097Z,1.63
2019-03-05T16:18:40.254Z,0.77
2019-03-05T16:21:11.405Z,1.17
2019-03-05T16:23:41.560Z,2.27
2019-03-05T16:26:11.756Z,1.50
2019-03-05T16:28:43.591Z,2.23
2019-03-05T16:31:27.713Z,1.07
2019-03-05T16:33:59.485Z,1.70
2019-03-05T16:36:31.366Z,2.20
2019-03-05T16:39:15.194Z,2.93
2019-03-05T16:42:05.122Z,2.53
2019-03-05T16:44:48.234Z,1.63
2019-03-05T16:47:25.420Z,1.07
2019-03-05T16:50:11.689Z,1.47
2019-03-05T16:52:58.523Z,1.37
2019-03-05T16:55:46.402Z,1.50
2019-03-05T16:58:18.194Z,2.40
2019-03-05T17:01:02.093Z,2.03
2019-03-05T17:03:49.064Z,2.03
2019-03-05T17:06:38.747Z,1.63
2019-03-05T17:09:16.459Z,1.13
2019-03-05T17:11:52.059Z,1.50
2019-03-05T17:14:23.311Z,1.03
2019-03-05T17:16:53.643Z,0.90
2019-03-05T17:19:23.996Z,1.00
2019-03-05T17:21:56.289Z,1.80
2019-03-05T17:24:29.983Z,0.93
2019-03-05T17:27:00.104Z,1.63
2019-03-05T17:29:30.242Z,1.17
2019-03-05T17:32:00.377Z,2.60
2019-03-05T17:34:30.697Z,1.90
2019-03-05T17:37:00.991Z,3.73
2019-03-05T17:39:31.355Z,1.40
2019-03-05T17:42:02.010Z,1.70
2019-03-05T17:44:32.486Z,1.10
2019-03-05T17:47:02.614Z,2.93
2019-03-05T17:49:32.783Z,2.20
2019-03-05T17:52:02.990Z,1.40
2019-03-05T17:54:34.013Z,1.00
2019-03-05T17:57:04.202Z,1.53
2019-03-05T17:59:34.405Z,1.60
2019-03-05T18:02:04.616Z,1.80
2019-03-05T18:04:35.613Z,2.67
2019-03-05T18:07:05.816Z,2.23
2019-03-05T18:09:35.946Z,1.37
2019-03-05T18:12:06.252Z,4.20
2019-03-05T18:14:36.572Z,1.17
2019-03-05T18:17:06.803Z,2.30
2019-03-05T18:19:36.993Z,1.20
2019-03-05T18:22:07.200Z,1.37
2019-03-05T18:24:37.465Z,2.30
2019-03-05T18:27:07.667Z,2.40
2019-03-05T18:29:38.309Z,4.80
2019-03-05T18:32:08.515Z,2.07
2019-03-05T18:34:40.268Z,1.17
2019-03-05T18:37:10.407Z,0.77
2019-03-05T18:39:40.546Z,1.40
2019-03-05T18:42:10.685Z,7.17
2019-03-05T18:44:42.917Z,1.03
2019-03-05T18:47:13.102Z,1.13
2019-03-05T18:49:43.275Z,0.90
2019-03-05T18:52:14.761Z,1.57
2019-03-05T18:54:44.934Z,1.90
2019-03-05T18:57:15.066Z,1.73
2019-03-05T18:59:45.254Z,2.00
2019-03-05T19:02:16.441Z,1.70
2019-03-05T19:04:46.576Z,1.10
2019-03-05T19:07:17.824Z,1.40
2019-03-05T19:09:48.777Z,1.33
2019-03-05T19:12:19.195Z,1.43
2019-03-05T19:14:49.334Z,2.20
2019-03-05T19:17:20.997Z,1.43
2019-03-05T19:19:51.392Z,1.00
2019-03-05T19:22:21.515Z,1.37
2019-03-05T19:24:51.742Z,1.70
2019-03-05T19:27:26.064Z,1.40
2019-03-05T19:29:54.155Z,1.40
2019-03-05T19:32:24.287Z,1.63
2019-03-05T19:34:54.561Z,1.50
2019-03-05T19:37:25.298Z,1.43
2019-03-05T19:39:55.493Z,1.27
2019-03-05T19:42:25.711Z,1.03
2019-03-05T19:44:55.838Z,1.63
2019-03-05T19:47:25.975Z,1.50
2019-03-05T19:49:56.167Z,0.87
2019-03-05T19:52:26.343Z,1.20
2019-03-05T19:54:56.475Z,2.50
2019-03-05T19:57:26.607Z,1.40
2019-03-05T19:59:56.719Z,1.90
2019-03-05T20:02:27.829Z,1.63
2019-03-05T20:04:58.120Z,1.17
2019-03-05T20:07:28.382Z,1.77
2019-03-05T20:09:58.581Z,1.67
2019-03-05T20:12:31.223Z,1.57
2019-03-05T20:15:01.109Z,1.13
2019-03-05T20:17:31.311Z,2.23
2019-03-05T20:20:01.668Z,1.80
2019-03-05T20:22:32.087Z,2.53
2019-03-05T20:25:02.334Z,1.80
2019-03-05T20:27:32.624Z,2.43
2019-03-05T20:30:04.466Z,2.27
2019-03-05T20:32:35.981Z,2.70
2019-03-05T20:35:08.184Z,3.30
2019-03-05T20:37:38.433Z,2.43
2019-03-05T20:40:13.685Z,2.93
2019-03-05T20:42:45.318Z,4.13
2019-03-05T20:45:38.633Z,2.93
2019-03-05T20:48:08.904Z,2.40
2019-03-05T20:50:39.103Z,1.67
2019-03-05T20:53:09.296Z,1.80
2019-03-05T20:55:39.508Z,1.90
2019-03-05T20:58:09.632Z,1.90
2019-03-05T21:00:40.488Z,1.60
2019-03-05T21:03:12.247Z,1.97
2019-03-05T21:05:49.660Z,1.67
2019-03-05T21:08:19.793Z,1.57
2019-03-05T21:10:51.231Z,1.70
2019-03-05T21:13:21.602Z,1.60
2019-03-05T21:15:51.732Z,1.17
2019-03-05T21:18:22.261Z,1.73
2019-03-05T21:20:53.382Z,1.40
2019-03-05T21:23:23.615Z,1.73
2019-03-05T21:25:53.812Z,1.80
2019-03-05T21:28:25.644Z,1.53
2019-03-05T21:30:55.866Z,1.73
2019-03-05T21:33:26.503Z,2.23
2019-03-05T21:35:56.635Z,1.90
2019-03-05T21:38:26.773Z,2.20
2019-03-05T21:40:56.992Z,2.53
2019-03-05T21:43:27.135Z,2.17
2019-03-05T21:46:06.109Z,2.10
2019-03-05T21:48:37.310Z,2.87
2019-03-05T21:51:07.439Z,1.67
2019-03-05T21:53:37.612Z,1.90
2019-03-05T21:56:08.770Z,2.03
2019-03-05T21:58:38.913Z,2.13
2019-03-05T22:01:09.050Z,1.80
2019-03-05T22:03:39.280Z,1.03
2019-03-05T22:06:11.448Z,1.60
2019-03-05T22:08:41.596Z,2.80
2019-03-05T22:11:12.691Z,1.30
2019-03-05T22:13:42.829Z,2.43
2019-03-05T22:16:13.123Z,1.70
2019-03-05T22:18:43.269Z,2.77
2019-03-05T22:21:13.409Z,1.43
2019-03-05T22:23:43.538Z,2.13
2019-03-05T22:26:13.679Z,2.00
2019-03-05T22:28:43.812Z,2.37
2019-03-05T22:31:14.035Z,2.00
2019-03-05T22:33:44.163Z,1.80
2019-03-05T22:36:14.300Z,1.67
2019-03-05T22:38:45.394Z,2.30
2019-03-05T22:41:16.502Z,2.50
2019-03-05T22:43:46.629Z,2.03
2019-03-05T22:46:16.762Z,2.30
2019-03-05T22:48:46.969Z,1.10
2019-03-05T22:51:17.105Z,1.67
2019-03-05T22:53:47.231Z,1.17
2019-03-05T22:56:17.373Z,1.93
2019-03-05T22:58:47.514Z,1.57
2019-03-05T23:01:19.815Z,1.60
2019-03-05T23:03:51.773Z,2.67
2019-03-05T23:06:22.260Z,1.53
2019-03-05T23:08:52.389Z,1.60
2019-03-05T23:11:23.669Z,1.53
2019-03-05T23:13:53.778Z,1.93
2019-03-05T23:16:24.205Z,1.73
2019-03-05T23:18:54.626Z,2.03
2019-03-05T23:21:24.766Z,1.77
2019-03-05T23:23:55.180Z,1.43
2019-03-05T23:26:26.395Z,0.97
2019-03-05T23:28:56.690Z,1.20
2019-03-05T23:31:26.823Z,1.40
2019-03-05T23:33:57.953Z,1.50
2019-03-05T23:36:28.107Z,1.23
2019-03-05T23:38:58.262Z,3.53
2019-03-05T23:41:29.408Z,1.23
2019-03-05T23:43:59.639Z,1.40
2019-03-05T23:46:31.041Z,1.70
2019-03-05T23:49:01.171Z,1.37
2019-03-05T23:51:31.324Z,1.80
2019-03-05T23:54:01.442Z,1.70
2019-03-05T23:56:37.380Z,1.10
2019-03-05T23:59:07.472Z,1.63
